| time (UTC) | temp C | wind direction | speed KPH | gust KPH | rain 1hr cm | rain 24hr cm | rain mn cm | humidity % | barometer mb |
| 20260906172005 | 36 | 91 | 3.2 | 0.0 | 0.00 | 0.00 | 0.00 | 41 | 1015.0 |
| 20260906171004 | 36 | 184 | 3.2 | 8.0 | 0.00 | 0.00 | 0.00 | 40 | 1015.2 |
| 20260906170005 | 36 | 185 | 3.2 | 8.0 | 0.00 | 0.00 | 0.00 | 41 | 1015.3 |
| 20260906165005 | 35 | 206 | 3.2 | 8.0 | 0.00 | 0.00 | 0.00 | 41 | 1015.4 |
| 20260906164004 | 35 | 45 | 4.8 | 9.7 | 0.00 | 0.00 | 0.00 | 40 | 1015.5 |
| 20260906163005 | 36 | 48 | 9.7 | 11.3 | 0.00 | 0.00 | 0.00 | 41 | 1015.4 |
| 20260906162005 | 35 | 86 | 3.2 | 8.0 | 0.00 | 0.00 | 0.00 | 43 | 1015.6 |
| 20260906161024 | -17 | 105 | 3.2 | 0.0 | 0.00 | 0.00 | 0.00 | 43 | 1015.6 |
| 20260906160005 | 35 | 113 | 3.2 | 6.4 | 0.00 | 0.00 | 0.00 | 42 | 1015.6 |
| 20260906155005 | 35 | 96 | 1.6 | 6.4 | 0.00 | 0.00 | 0.00 | 43 | 1015.6 |
| 20260906154004 | 35 | 151 | 1.6 | 4.8 | 0.00 | 0.00 | 0.00 | 43 | 1015.5 |
| 20260906153004 | 34 | 74 | 1.6 | 6.4 | 0.00 | 0.00 | 0.00 | 44 | 1015.4 |
| 20260906152004 | 33 | 109 | 1.6 | 4.8 | 0.00 | 0.00 | 0.00 | 44 | 1015.5 |
| 20260906151005 | 32 | 99 | 1.6 | 4.8 | 0.00 | 0.00 | 0.00 | 47 | 1015.4 |
| 20260906150004 | -17 | 92 | 1.6 | 0.0 | 0.00 | 0.00 | 0.00 | 49 | 1015.4 |
| 20260906145005 | 32 | 80 | 1.6 | 4.8 | 0.00 | 0.00 | 0.00 | 49 | 1015.4 |
| 20260906144024 | 32 | 130 | 1.6 | 4.8 | 0.00 | 0.00 | 0.00 | 50 | 1015.3 |
| 20260906143004 | 31 | 186 | 1.6 | 3.2 | 0.00 | 0.00 | 0.00 | 54 | 1015.4 |
| 20260906142024 | 30 | 76 | 1.6 | 8.0 | 0.00 | 0.00 | 0.00 | 57 | 1015.4 |
| 20260906141005 | 29 | 161 | 1.6 | 3.2 | 0.00 | 0.00 | 0.00 | 57 | 1015.5 |
| 20260906140024 | 29 | 211 | 1.6 | 0.0 | 0.00 | 0.00 | 0.00 | 58 | 1015.4 |
| 20260906135005 | 28 | 239 | 1.6 | 3.2 | 0.00 | 0.00 | 0.00 | 61 | 1015.3 |
| 20260906134004 | 27 | 172 | 1.6 | 3.2 | 0.00 | 0.00 | 0.00 | 64 | 1015.3 |
| 20260906133004 | 27 | 194 | 1.6 | 3.2 | 0.00 | 0.00 | 0.00 | 66 | 1015.4 |
| 20260906132024 | 26 | 124 | 0.0 | 1.6 | 0.00 | 0.00 | 0.00 | 66 | 1015.3 |
| 20260906131004 | 25 | 42 | 1.6 | 3.2 | 0.00 | 0.00 | 0.00 | 72 | 1015.3 |
| 20260906130004 | 23 | 189 | 1.6 | 4.8 | 0.00 | 0.00 | 0.00 | 76 | 1015.2 |
| 20260906125005 | 23 | 101 | 1.6 | 0.0 | 0.00 | 0.00 | 0.00 | 79 | 1015.0 |
| 20260906124004 | 22 | 226 | 1.6 | 3.2 | 0.00 | 0.00 | 0.00 | 79 | 1014.9 |
| 20260906123004 | 22 | 107 | 1.6 | 1.6 | 0.00 | 0.00 | 0.00 | 82 | 1014.7 |
| 20260906122004 | 22 | 86 | 1.6 | 1.6 | 0.00 | 0.00 | 0.00 | 84 | 1014.6 |
| 20260906121004 | 22 | 354 | 1.6 | 1.6 | 0.00 | 0.00 | 0.00 | 82 | 1014.5 |
| 20260906120004 | 22 | 181 | 1.6 | 3.2 | 0.00 | 0.00 | 0.00 | 82 | 1014.6 |
| 20260906115005 | 22 | 243 | 1.6 | 0.0 | 0.00 | 0.00 | 0.00 | 82 | 1014.4 |
| 20260906114004 | 22 | 257 | 1.6 | 3.2 | 0.00 | 0.00 | 0.00 | 80 | 1014.3 |
| 20260906113004 | 22 | 138 | 0.0 | 1.6 | 0.00 | 0.00 | 0.00 | 81 | 1014.2 |
| 20260906112005 | 22 | 84 | 1.6 | 3.2 | 0.00 | 0.00 | 0.00 | 80 | 1014.1 |
| 20260906111004 | 22 | 87 | 1.6 | 1.6 | 0.00 | 0.00 | 0.00 | 79 | 1014.1 |
| 20260906110004 | 23 | 85 | 1.6 | 1.6 | 0.00 | 0.00 | 0.00 | 78 | 1014.1 |
| 20260906105005 | 23 | 106 | 1.6 | 3.2 | 0.00 | 0.00 | 0.00 | 78 | 1014.0 |
| 20260906104004 | -17 | 88 | 1.6 | 0.0 | 0.00 | 0.00 | 0.00 | 78 | 1014.0 |
| 20260906103004 | 22 | 95 | 0.0 | 1.6 | 0.00 | 0.00 | 0.00 | 79 | 1013.9 |
| 20260906102004 | 22 | 67 | 1.6 | 1.6 | 0.00 | 0.00 | 0.00 | 78 | 1013.9 |
| 20260906101004 | 23 | 50 | 1.6 | 3.2 | 0.00 | 0.00 | 0.00 | 78 | 1014.0 |
| 20260906100004 | 23 | 44 | 1.6 | 3.2 | 0.00 | 0.00 | 0.00 | 78 | 1014.0 |
| 20260906095006 | 23 | 93 | 1.6 | 3.2 | 0.00 | 0.00 | 0.00 | 77 | 1013.9 |
| 20260906094004 | 23 | 107 | 1.6 | 0.0 | 0.00 | 0.00 | 0.00 | 77 | 1013.9 |
| 20260906093004 | 23 | 146 | 0.0 | 1.6 | 0.00 | 0.00 | 0.00 | 75 | 1013.9 |
| 20260906092004 | 23 | 122 | 1.6 | 1.6 | 0.00 | 0.00 | 0.00 | 75 | 1013.8 |
| 20260906091004 | 24 | 104 | 1.6 | 4.8 | 0.00 | 0.00 | 0.00 | 73 | 1013.8 |
| 20260906090004 | 23 | 69 | 1.6 | 3.2 | 0.00 | 0.00 | 0.00 | 73 | 1013.7 |
| 20260906085005 | 23 | 22 | 1.6 | 3.2 | 0.00 | 0.00 | 0.00 | 73 | 1013.6 |
| 20260906084004 | 24 | 346 | 1.6 | 6.4 | 0.00 | 0.00 | 0.00 | 73 | 1013.7 |
| 20260906083004 | -17 | 121 | 1.6 | 0.0 | 0.00 | 0.00 | 0.00 | 73 | 1013.7 |
| 20260906082004 | 25 | 344 | 1.6 | 8.0 | 0.00 | 0.00 | 0.00 | 71 | 1013.7 |
| 20260906081004 | 24 | 49 | 4.8 | 4.8 | 0.00 | 0.00 | 0.00 | 69 | 1013.7 |
| 20260906080005 | 25 | 73 | 1.6 | 3.2 | 0.00 | 0.00 | 0.00 | 71 | 1013.6 |
| 20260906075025 | 25 | 298 | 1.6 | 3.2 | 0.00 | 0.00 | 0.00 | 68 | 1013.5 |
| 20260906074004 | 25 | 174 | 1.6 | 3.2 | 0.00 | 0.00 | 0.00 | 67 | 1013.6 |
| 20260906073004 | 25 | 190 | 1.6 | 3.2 | 0.00 | 0.00 | 0.00 | 68 | 1013.6 |
| 20260906072004 | 25 | 87 | 1.6 | 0.0 | 0.00 | 0.00 | 0.00 | 67 | 1013.7 |
| 20260906071005 | 25 | 202 | 1.6 | 3.2 | 0.00 | 0.00 | 0.00 | 66 | 1013.8 |
| 20260906070005 | 25 | 94 | 1.6 | 1.6 | 0.00 | 0.00 | 0.00 | 66 | 1013.8 |
| 20260906065026 | 26 | 183 | 1.6 | 1.6 | 0.00 | 0.00 | 0.00 | 65 | 1013.9 |
| 20260906064005 | 26 | 177 | 1.6 | 3.2 | 0.00 | 0.00 | 0.00 | 63 | 1013.9 |
| 20260906063005 | 26 | 71 | 1.6 | 1.6 | 0.00 | 0.00 | 0.00 | 63 | 1013.9 |
| 20260906062005 | 26 | 79 | 1.6 | 3.2 | 0.00 | 0.00 | 0.00 | 63 | 1014.0 |
| 20260906061025 | -17 | 25 | 1.6 | 0.0 | 0.00 | 0.00 | 0.00 | 63 | 1013.8 |
| 20260906060005 | 27 | 147 | 1.6 | 3.2 | 0.00 | 0.00 | 0.00 | 59 | 1013.8 |
| 20260906055005 | 27 | 180 | 1.6 | 4.8 | 0.00 | 0.00 | 0.00 | 56 | 1013.9 |
| 20260906054025 | 28 | 105 | 1.6 | 3.2 | 0.00 | 0.00 | 0.00 | 55 | 1013.8 |
| 20260906053005 | 28 | 79 | 1.6 | 6.4 | 0.00 | 0.00 | 0.00 | 55 | 1013.7 |
| 20260906052005 | 28 | 120 | 1.6 | 4.8 | 0.00 | 0.00 | 0.00 | 55 | 1013.7 |
| 20260906051005 | 28 | 78 | 1.6 | 0.0 | 0.00 | 0.00 | 0.00 | 54 | 1013.6 |
| 20260906050005 | 28 | 65 | 1.6 | 4.8 | 0.00 | 0.00 | 0.00 | 54 | 1013.6 |
| 20260906045005 | 28 | 117 | 1.6 | 6.4 | 0.00 | 0.00 | 0.00 | 52 | 1013.5 |
| 20260906044004 | 28 | 101 | 1.6 | 6.4 | 0.00 | 0.00 | 0.00 | 52 | 1013.6 |
| 20260906043005 | 28 | 106 | 1.6 | 4.8 | 0.00 | 0.00 | 0.00 | 52 | 1013.7 |
| 20260906042005 | 28 | 96 | 1.6 | 6.4 | 0.00 | 0.00 | 0.00 | 52 | 1013.7 |
| 20260906041025 | 29 | 88 | 1.6 | 6.4 | 0.00 | 0.00 | 0.00 | 52 | 1013.6 |
| 20260906040005 | -17 | 143 | 1.6 | 0.0 | 0.00 | 0.00 | 0.00 | 52 | 1013.5 |
| 20260906035006 | 29 | 98 | 3.2 | 8.0 | 0.00 | 0.00 | 0.00 | 53 | 1013.6 |
| 20260906034005 | 29 | 132 | 1.6 | 6.4 | 0.00 | 0.00 | 0.00 | 54 | 1013.6 |
| 20260906033004 | 29 | 79 | 1.6 | 6.4 | 0.00 | 0.00 | 0.00 | 54 | 1013.6 |
| 20260906032024 | 29 | 109 | 1.6 | 4.8 | 0.00 | 0.00 | 0.00 | 55 | 1013.5 |
| 20260906031004 | 29 | 104 | 1.6 | 6.4 | 0.00 | 0.00 | 0.00 | 55 | 1013.5 |
| 20260906030005 | 29 | 118 | 1.6 | 4.8 | 0.00 | 0.00 | 0.00 | 55 | 1013.4 |
| 20260906025005 | -17 | 86 | 1.6 | 0.0 | 0.00 | 0.00 | 0.00 | 54 | 1013.3 |
| 20260906024004 | 30 | 100 | 1.6 | 4.8 | 0.00 | 0.00 | 0.00 | 54 | 1013.3 |
| 20260906023004 | 30 | 127 | 1.6 | 4.8 | 0.00 | 0.00 | 0.00 | 53 | 1013.2 |
| 20260906022004 | 30 | 123 | 1.6 | 6.4 | 0.00 | 0.00 | 0.00 | 52 | 1013.1 |
| 20260906021024 | 30 | 87 | 1.6 | 4.8 | 0.00 | 0.00 | 0.00 | 52 | 1012.9 |
| 20260906020004 | 30 | 94 | 1.6 | 8.0 | 0.00 | 0.00 | 0.00 | 51 | 1012.8 |
| 20260906015005 | 31 | 62 | 1.6 | 0.0 | 0.00 | 0.00 | 0.00 | 50 | 1012.6 |
| 20260906014005 | 31 | 77 | 4.8 | 9.7 | 0.00 | 0.00 | 0.00 | 49 | 1012.5 |
| 20260906013024 | 31 | 70 | 3.2 | 9.7 | 0.00 | 0.00 | 0.00 | 48 | 1012.5 |
| 20260906012005 | 32 | 74 | 3.2 | 6.4 | 0.00 | 0.00 | 0.00 | 46 | 1012.4 |
| 20260906011024 | 32 | 105 | 1.6 | 4.8 | 0.00 | 0.00 | 0.00 | 47 | 1012.3 |
| 20260906010004 | 32 | 80 | 3.2 | 6.4 | 0.00 | 0.00 | 0.00 | 45 | 1012.2 |
| 20260906005005 | 32 | 74 | 3.2 | 4.8 | 0.00 | 0.00 | 0.00 | 44 | 1012.1 |
| 20260906004004 | -17 | 91 | 3.2 | 0.0 | 0.00 | 0.00 | 0.00 | 43 | 1012.2 |
| 20260906003004 | 35 | 90 | 3.2 | 3.2 | 0.00 | 0.00 | 0.00 | 41 | 1012.2 |
| 20260906002004 | 36 | 95 | 1.6 | 1.6 | 0.00 | 0.00 | 0.00 | 37 | 1012.1 |
| 20260906001024 | 37 | 136 | 1.6 | 3.2 | 0.00 | 0.00 | 0.00 | 33 | 1012.1 |
| 20260906000024 | 37 | 115 | 1.6 | 4.8 | 0.00 | 0.00 | 0.00 | 32 | 1012.2 |
| 20260905235025 | 37 | 140 | 1.6 | 4.8 | 0.00 | 0.00 | 0.00 | 32 | 1012.1 |
| 20260905234004 | 37 | 103 | 3.2 | 0.0 | 0.00 | 0.00 | 0.00 | 30 | 1012.1 |
| 20260905233004 | 37 | 120 | 1.6 | 4.8 | 0.00 | 0.00 | 0.00 | 30 | 1012.1 |
| 20260905232004 | 37 | 169 | 1.6 | 4.8 | 0.00 | 0.00 | 0.00 | 30 | 1012.1 |
| 20260905231004 | 38 | 167 | 1.6 | 6.4 | 0.00 | 0.00 | 0.00 | 30 | 1012.1 |
| 20260905230004 | 38 | 123 | 1.6 | 4.8 | 0.00 | 0.00 | 0.00 | 30 | 1012.1 |
| 20260905225005 | 38 | 111 | 3.2 | 8.0 | 0.00 | 0.00 | 0.00 | 31 | 1012.0 |
| 20260905224004 | 38 | 106 | 3.2 | 8.0 | 0.00 | 0.00 | 0.00 | 29 | 1011.9 |
| 20260905223004 | -17 | 123 | 3.2 | 0.0 | 0.00 | 0.00 | 0.00 | 30 | 1011.9 |
| 20260905222004 | 37 | 129 | 1.6 | 8.0 | 0.00 | 0.00 | 0.00 | 29 | 1011.9 |
| 20260905221004 | 38 | 95 | 3.2 | 11.3 | 0.00 | 0.00 | 0.00 | 30 | 1012.0 |
| 20260905220004 | 38 | 181 | 1.6 | 8.0 | 0.00 | 0.00 | 0.00 | 30 | 1012.2 |
| 20260905215005 | 38 | 123 | 1.6 | 8.0 | 0.00 | 0.00 | 0.00 | 29 | 1012.2 |
| 20260905214004 | 38 | 75 | 4.8 | 9.7 | 0.00 | 0.00 | 0.00 | 30 | 1012.2 |
| 20260905213004 | 38 | 110 | 4.8 | 11.3 | 0.00 | 0.00 | 0.00 | 30 | 1012.3 |
| 20260905212024 | 38 | 119 | 3.2 | 0.0 | 0.00 | 0.00 | 0.00 | 32 | 1012.4 |
| 20260905211024 | 38 | 224 | 4.8 | 8.0 | 0.00 | 0.00 | 0.00 | 32 | 1012.6 |
| 20260905210004 | 37 | 234 | 3.2 | 8.0 | 0.00 | 0.00 | 0.00 | 33 | 1012.8 |
| 20260905205005 | 38 | 152 | 3.2 | 8.0 | 0.00 | 0.00 | 0.00 | 33 | 1013.0 |
| 20260905204004 | 37 | 114 | 4.8 | 8.0 | 0.00 | 0.00 | 0.00 | 32 | 1013.1 |
| 20260905203004 | 37 | 105 | 3.2 | 6.4 | 0.00 | 0.00 | 0.00 | 34 | 1013.2 |
| 20260905202004 | 36 | 135 | 3.2 | 8.0 | 0.00 | 0.00 | 0.00 | 35 | 1013.3 |
| 20260905201004 | -17 | 151 | 3.2 | 0.0 | 0.00 | 0.00 | 0.00 | 35 | 1013.5 |
| 20260905200004 | 37 | 90 | 3.2 | 11.3 | 0.00 | 0.00 | 0.00 | 36 | 1013.6 |
| 20260905195005 | 36 | 63 | 3.2 | 8.0 | 0.00 | 0.00 | 0.00 | 36 | 1013.7 |
| 20260905194004 | 35 | 66 | 4.8 | 11.3 | 0.00 | 0.00 | 0.00 | 37 | 1013.8 |
| 20260905193024 | 36 | 66 | 3.2 | 9.7 | 0.00 | 0.00 | 0.00 | 37 | 1013.9 |
| 20260905192004 | 37 | 101 | 4.8 | 11.3 | 0.00 | 0.00 | 0.00 | 37 | 1014.0 |
| 20260905191004 | 36 | 97 | 3.2 | 9.7 | 0.00 | 0.00 | 0.00 | 38 | 1014.1 |
| 20260905190004 | -17 | 187 | 3.2 | 0.0 | 0.00 | 0.00 | 0.00 | 36 | 1014.3 |
| 20260905185005 | 36 | 76 | 4.8 | 8.0 | 0.00 | 0.00 | 0.00 | 36 | 1014.6 |
| 20260905184004 | 36 | 61 | 3.2 | 9.7 | 0.00 | 0.00 | 0.00 | 38 | 1014.6 |
| 20260905183004 | 36 | 98 | 3.2 | 12.9 | 0.00 | 0.00 | 0.00 | 40 | 1014.7 |
| 20260905182005 | 36 | 77 | 6.4 | 14.5 | 0.00 | 0.00 | 0.00 | 38 | 1014.8 |
| 20260905181025 | 36 | 71 | 4.8 | 8.0 | 0.00 | 0.00 | 0.00 | 39 | 1015.0 |
| 20260905180005 | 35 | 354 | 3.2 | 0.0 | 0.00 | 0.00 | 0.00 | 39 | 1015.1 |
| 20260905175025 | 36 | 43 | 4.8 | 12.9 | 0.00 | 0.00 | 0.00 | 40 | 1015.2 |
| 20260905174005 | 35 | 103 | 3.2 | 12.9 | 0.00 | 0.00 | 0.00 | 40 | 1015.4 |
| 20260905173005 | 35 | 63 | 4.8 | 9.7 | 0.00 | 0.00 | 0.00 | 41 | 1015.5 |